createdAt,value
2022-08-05T00:01:56.264Z,101091.44
2022-08-05T00:06:02.764Z,101081.53
2022-08-05T00:08:34.305Z,101083.47
2022-08-05T00:11:49.534Z,101069.13
2022-08-05T00:14:58.058Z,101072.47
2022-08-05T00:18:00.135Z,101075.22
2022-08-05T00:21:06.779Z,101060.78
2022-08-05T00:24:11.260Z,101068.91
2022-08-05T00:27:21.062Z,101056.84
2022-08-05T00:30:32.094Z,101062.06
2022-08-05T00:34:55.196Z,101057.66
2022-08-05T00:37:12.636Z,101053.84
2022-08-05T00:40:17.764Z,101041.19
2022-08-05T00:43:46.670Z,101047.53
2022-08-05T00:46:54.111Z,101042.84
2022-08-05T00:50:04.673Z,101043.13
2022-08-05T00:53:09.874Z,101042.50
2022-08-05T00:56:29.770Z,101039.41
2022-08-05T00:59:42.035Z,101044.06
2022-08-05T01:02:46.727Z,101048.50
2022-08-05T01:05:54.697Z,101048.50
2022-08-05T01:08:57.094Z,101042.16
2022-08-05T01:12:17.882Z,101037.38
2022-08-05T01:15:35.366Z,101033.09
2022-08-05T01:18:43.367Z,101031.16
2022-08-05T01:22:24.052Z,101032.88
2022-08-05T01:25:40.922Z,101030.69
2022-08-05T01:28:55.512Z,101032.59
2022-08-05T01:32:02.848Z,101042.75
2022-08-05T01:35:13.357Z,101040.00
2022-08-05T01:38:37.950Z,101042.75
2022-08-05T01:41:44.468Z,101038.94
2022-08-05T01:44:54.274Z,101049.09
2022-08-05T01:47:57.483Z,101048.16
2022-08-05T01:51:00.224Z,101044.78
2022-08-05T01:54:18.146Z,101045.06
2022-08-05T01:58:09.564Z,101041.44
2022-08-05T02:00:51.091Z,101032.75
2022-08-05T02:03:55.714Z,101046.09
2022-08-05T02:06:59.946Z,101037.88
2022-08-05T02:10:07.966Z,101032.03
2022-08-05T02:13:16.856Z,101036.19
2022-08-05T02:16:44.758Z,101036.47
2022-08-05T02:19:53.119Z,101031.66
2022-08-05T02:22:59.769Z,101040.03
2022-08-05T02:26:05.379Z,101024.03
2022-08-05T02:29:21.349Z,101031.91
2022-08-05T02:32:29.428Z,101036.31
2022-08-05T02:35:38.600Z,101022.00
2022-08-05T02:38:55.172Z,101030.47
2022-08-05T02:42:01.217Z,101030.47
2022-08-05T02:45:04.675Z,101044.19
2022-08-05T02:48:12.767Z,101042.53
2022-08-05T02:51:15.943Z,101045.28
2022-08-05T02:54:35.580Z,101048.00
2022-08-05T02:58:10.887Z,101053.16
2022-08-05T03:01:02.963Z,101054.59
2022-08-05T03:04:14.120Z,101056.97
2022-08-05T03:07:40.430Z,101064.47
2022-08-05T03:10:44.559Z,101069.13
2022-08-05T03:14:07.961Z,101062.56
2022-08-05T03:17:10.165Z,101063.41
2022-08-05T03:20:13.388Z,101058.78
2022-08-05T03:23:16.165Z,101067.59
2022-08-05T03:26:32.093Z,101064.00
2022-08-05T03:29:45.692Z,101071.16
2022-08-05T03:32:57.382Z,101068.88
2022-08-05T03:36:00.291Z,101065.56
2022-08-05T03:39:08.541Z,101066.41
2022-08-05T03:42:21.983Z,101071.63
2022-08-05T03:45:29.788Z,101071.63
2022-08-05T03:48:51.697Z,101063.19
2022-08-05T03:52:38.144Z,101074.16
2022-08-05T03:56:06.119Z,101063.41
2022-08-05T03:58:52.799Z,101060.91
2022-08-05T04:01:59.090Z,101058.53
2022-08-05T04:05:02.745Z,101056.97
2022-08-05T04:08:29.938Z,101066.84
2022-08-05T04:11:50.470Z,101062.69
2022-08-05T04:14:54.704Z,101057.56
2022-08-05T04:18:02.942Z,101072.47
2022-08-05T04:21:11.034Z,101068.06
2022-08-05T04:24:19.179Z,101073.31
2022-08-05T04:27:41.695Z,101068.66
2022-08-05T04:30:46.224Z,101071.16
2022-08-05T04:34:18.713Z,101074.97
2022-08-05T04:37:12.718Z,101075.81
2022-08-05T04:40:14.884Z,101084.03
2022-08-05T04:43:22.081Z,101080.47
2022-08-05T04:46:28.238Z,101069.47
2022-08-05T04:49:38.990Z,101069.72
2022-08-05T04:52:52.886Z,101071.75
2022-08-05T04:56:15.367Z,101063.06
2022-08-05T04:59:24.344Z,101046.09
2022-08-05T05:02:41.934Z,101066.16
2022-08-05T05:06:39.450Z,101071.41
2022-08-05T05:09:07.578Z,101064.81
2022-08-05T05:12:09.832Z,101059.59
2022-08-05T05:15:13.643Z,101065.06
2022-08-05T05:18:31.482Z,101068.66
2022-08-05T05:21:36.202Z,101075.31
2022-08-05T05:24:59.075Z,101067.34
2022-08-05T05:28:01.991Z,101066.72
2022-08-05T05:31:05.622Z,101063.50
2022-08-05T05:34:10.854Z,101064.81
2022-08-05T05:37:16.263Z,101062.06
2022-08-05T05:40:20.390Z,101065.81
2022-08-05T05:43:58.444Z,101054.34
2022-08-05T05:46:50.289Z,101050.41
2022-08-05T05:49:56.744Z,101058.06
2022-08-05T05:53:03.384Z,101053.03
2022-08-05T05:56:31.325Z,101065.59
2022-08-05T05:59:40.090Z,101072.50
2022-08-05T06:02:43.003Z,101075.00
2022-08-05T06:05:45.194Z,101079.16
2022-08-05T06:08:56.356Z,101067.59
2022-08-05T06:12:00.012Z,101070.44
2022-08-05T06:15:06.248Z,101064.72
2022-08-05T06:18:10.177Z,101064.09
2022-08-05T06:21:18.527Z,101063.63
2022-08-05T06:24:25.706Z,101058.00
2022-08-05T06:28:11.728Z,101045.81
2022-08-05T06:30:51.576Z,101055.25
2022-08-05T06:34:07.338Z,101057.78
2022-08-05T06:37:10.955Z,101049.88
2022-08-05T06:40:20.914Z,101055.94
2022-08-05T06:43:58.163Z,101050.22
2022-08-05T06:46:45.417Z,101054.22
2022-08-05T06:50:01.074Z,101049.00
2022-08-05T06:53:19.505Z,101048.84
2022-08-05T06:56:27.268Z,101042.00
2022-08-05T06:59:29.406Z,101034.72
2022-08-05T07:02:48.080Z,101041.03
2022-08-05T07:05:56.411Z,101042.22
2022-08-05T07:09:00.029Z,101034.34
2022-08-05T07:12:06.892Z,101031.72
2022-08-05T07:15:34.606Z,101035.50
2022-08-05T07:18:50.598Z,101025.34
2022-08-05T07:21:59.881Z,101033.03
2022-08-05T07:25:21.850Z,101026.22
2022-08-05T07:28:26.395Z,101025.13
2022-08-05T07:31:40.701Z,101029.03
2022-08-05T07:34:50.617Z,101020.88
2022-08-05T07:38:00.075Z,101010.81
2022-08-05T07:42:06.762Z,101020.41
2022-08-05T07:44:30.183Z,101017.75
2022-08-05T07:47:42.199Z,101014.50
2022-08-05T07:50:44.804Z,101011.25
2022-08-05T07:53:50.632Z,101010.69
2022-08-05T07:57:02.057Z,101016.50
2022-08-05T08:00:15.633Z,101003.59
2022-08-05T08:03:18.807Z,101006.00
2022-08-05T08:06:23.684Z,101011.34
2022-08-05T08:09:30.266Z,101016.84
2022-08-05T08:12:49.205Z,101006.41
2022-08-05T08:16:34.856Z,101011.41
2022-08-05T08:19:37.924Z,101014.63
2022-08-05T08:22:36.157Z,101015.19
2022-08-05T08:26:00.825Z,101008.09
2022-08-05T08:29:21.894Z,101001.44
2022-08-05T08:32:27.826Z,100995.44
2022-08-05T08:35:35.112Z,101004.94
2022-08-05T08:38:43.213Z,100999.16
2022-08-05T08:41:59.903Z,101005.44
2022-08-05T08:45:20.238Z,101001.31
2022-08-05T08:48:41.654Z,100999.50
2022-08-05T08:52:14.394Z,100981.66
2022-08-05T08:55:19.456Z,100987.72
2022-08-05T08:58:37.068Z,100992.28
2022-08-05T09:01:42.566Z,100982.44
2022-08-05T09:04:58.117Z,100975.97
2022-08-05T09:08:09.751Z,100977.97
2022-08-05T09:11:13.867Z,100976.31
2022-08-05T09:14:56.508Z,100973.22
2022-08-05T09:17:42.410Z,100966.25
2022-08-05T09:20:51.595Z,100981.41
2022-08-05T09:24:13.239Z,100986.50
2022-08-05T09:28:04.105Z,100989.25
2022-08-05T09:30:56.760Z,100988.78
2022-08-05T09:34:16.460Z,100981.72
2022-08-05T09:38:17.654Z,100971.84
2022-08-05T09:41:16.313Z,100980.94
2022-08-05T09:44:36.581Z,100968.41
2022-08-05T09:47:55.689Z,100974.69
2022-08-05T09:51:14.821Z,100969.31
2022-08-05T09:54:35.559Z,100981.88
2022-08-05T09:57:43.190Z,100962.03
2022-08-05T10:00:59.479Z,100967.16
2022-08-05T10:04:16.073Z,100969.53
2022-08-05T10:08:11.158Z,100966.78
2022-08-05T10:10:44.343Z,100984.53
2022-08-05T10:13:49.259Z,100975.16
2022-08-05T10:16:53.500Z,100971.56
2022-08-05T10:20:04.471Z,100975.16
2022-08-05T10:23:22.196Z,100971.31
2022-08-05T10:26:37.414Z,100965.56
2022-08-05T10:31:19.814Z,100960.59
2022-08-05T10:33:14.654Z,100941.25
2022-08-05T10:36:17.348Z,100952.09
2022-08-05T10:39:59.194Z,100944.69
2022-08-05T10:43:04.709Z,100932.78
2022-08-05T10:46:17.817Z,100940.91
2022-08-05T10:49:27.122Z,100936.84
2022-08-05T10:52:49.656Z,100941.78
2022-08-05T10:56:21.078Z,100930.34
2022-08-05T11:00:02.075Z,100945.47
2022-08-05T11:03:26.006Z,100954.53
2022-08-05T11:06:31.042Z,100918.28
2022-08-05T11:09:49.538Z,100939.38
2022-08-05T11:12:54.934Z,100935.88
2022-08-05T11:16:47.730Z,100918.50
2022-08-05T11:20:16.813Z,100930.25
2022-08-05T11:23:49.915Z,100931.06
2022-08-05T11:27:11.235Z,100934.25
2022-08-05T11:30:14.070Z,100924.63
2022-08-05T11:33:46.485Z,100920.28
2022-08-05T11:36:52.933Z,100919.81
2022-08-05T11:40:03.377Z,100916.84
2022-08-05T11:43:07.006Z,100904.75
2022-08-05T11:46:15.084Z,100920.28
2022-08-05T11:49:34.541Z,100910.03
2022-08-05T11:52:39.770Z,100923.50
2022-08-05T11:55:59.881Z,100920.00
2022-08-05T11:59:01.891Z,100922.97
2022-08-05T12:02:24.179Z,100911.63
2022-08-05T12:05:36.418Z,100917.84
2022-08-05T12:08:50.924Z,100902.94
2022-08-05T12:11:54.446Z,100905.09
2022-08-05T12:14:59.930Z,100899.03
2022-08-05T12:18:03.685Z,100892.94
2022-08-05T12:21:21.762Z,100891.63
2022-08-05T12:24:30.111Z,100885.34
2022-08-05T12:27:35.607Z,100881.00
2022-08-05T12:30:56.942Z,100873.06
2022-08-05T12:33:59.212Z,100873.41
2022-08-05T12:37:17.703Z,100889.13
2022-08-05T12:40:29.591Z,100868.19
2022-08-05T12:43:32.331Z,100874.34
2022-08-05T12:46:35.693Z,100870.47
2022-08-05T12:50:03.564Z,100871.63
2022-08-05T12:53:08.335Z,100856.81
2022-08-05T12:56:35.167Z,100854.34
2022-08-05T13:02:01.312Z,100856.03
2022-08-05T13:03:15.443Z,100853.59
2022-08-05T13:06:18.195Z,100850.06
2022-08-05T13:09:28.305Z,100847.03
2022-08-05T13:12:30.944Z,100861.13
2022-08-05T13:15:41.111Z,100859.19
2022-08-05T13:18:58.449Z,100859.41
2022-08-05T13:22:01.083Z,100846.44
2022-08-05T13:25:19.526Z,100838.16
2022-08-05T13:28:24.191Z,100839.88
2022-08-05T13:31:33.889Z,100837.38
2022-08-05T13:34:49.450Z,100839.38
2022-08-05T13:37:55.519Z,100841.59
2022-08-05T13:40:58.220Z,100837.72
2022-08-05T13:44:00.622Z,100838.00
2022-08-05T13:47:08.813Z,100831.66
2022-08-05T13:50:16.231Z,100834.44
2022-08-05T13:53:18.816Z,100828.09
2022-08-05T13:56:20.859Z,100831.69
2022-08-05T13:59:27.082Z,100838.03
2022-08-05T14:02:29.833Z,100846.88
2022-08-05T14:06:25.013Z,100837.50
2022-08-05T14:08:55.365Z,100839.44
2022-08-05T14:12:03.960Z,100835.56
2022-08-05T14:16:07.797Z,100833.34
2022-08-05T14:18:42.269Z,100830.81
2022-08-05T14:22:08.903Z,100834.09
2022-08-05T14:25:21.952Z,100825.25
2022-08-05T14:28:26.933Z,100819.47
2022-08-05T14:32:03.885Z,100824.72
2022-08-05T14:34:52.313Z,100820.28
2022-08-05T14:37:55.653Z,100811.69
2022-08-05T14:40:58.002Z,100834.63
2022-08-05T14:44:09.702Z,100814.19
2022-08-05T14:47:12.180Z,100819.44
2022-08-05T14:50:19.119Z,100823.06
2022-08-05T14:53:21.663Z,100825.00
2022-08-05T14:56:24.016Z,100828.88
2022-08-05T14:59:29.425Z,100820.63
2022-08-05T15:02:37.305Z,100820.63
2022-08-05T15:06:13.283Z,100807.09
2022-08-05T15:09:51.448Z,100816.22
2022-08-05T15:13:01.117Z,100815.34
2022-08-05T15:16:16.253Z,100801.22
2022-08-05T15:19:23.837Z,100805.63
2022-08-05T15:22:27.299Z,100810.31
2022-08-05T15:25:53.053Z,100810.56
2022-08-05T15:28:52.345Z,100814.44
2022-08-05T15:31:54.419Z,100795.56
2022-08-05T15:34:57.872Z,100811.00
2022-08-05T15:38:32.562Z,100790.00
2022-08-05T15:41:24.739Z,100804.63
2022-08-05T15:44:51.202Z,100796.03
2022-08-05T15:47:57.540Z,100800.44
2022-08-05T15:51:01.559Z,100794.09
2022-08-05T15:54:08.390Z,100810.06
2022-08-05T15:57:10.601Z,100812.53
2022-08-05T16:00:13.341Z,100798.16
2022-08-05T16:03:19.027Z,100800.09
2022-08-05T16:06:23.283Z,100816.31
2022-08-05T16:09:25.763Z,100809.72
2022-08-05T16:12:27.726Z,100813.81
2022-08-05T16:15:32.469Z,100815.97
2022-08-05T16:18:34.862Z,100811.56
2022-08-05T16:22:03.096Z,100816.53
2022-08-05T16:25:09.715Z,100804.91
2022-08-05T16:28:14.157Z,100803.19
2022-08-05T16:31:17.790Z,100811.75
2022-08-05T16:34:22.424Z,100813.66
2022-08-05T16:38:03.656Z,100811.38
2022-08-05T16:40:55.661Z,100802.56
2022-08-05T16:44:16.928Z,100811.94
2022-08-05T16:47:28.682Z,100816.03
2022-08-05T16:50:38.133Z,100811.06
2022-08-05T16:54:02.502Z,100804.97
2022-08-05T16:57:03.744Z,100804.13
2022-08-05T17:00:10.622Z,100810.22
2022-08-05T17:03:19.868Z,100807.97
2022-08-05T17:06:24.475Z,100810.97
2022-08-05T17:09:38.951Z,100807.03
2022-08-05T17:12:55.581Z,100815.56
2022-08-05T17:16:13.199Z,100814.16
2022-08-05T17:19:19.766Z,100809.94
2022-08-05T17:22:25.326Z,100806.34
2022-08-05T17:25:33.769Z,100821.44
2022-08-05T17:28:36.528Z,100821.97
2022-08-05T17:31:57.019Z,100823.53
2022-08-05T17:35:07.423Z,100809.63
2022-08-05T17:38:10.011Z,100818.44
2022-08-05T17:42:18.348Z,100830.88
2022-08-05T17:44:50.981Z,100832.47
2022-08-05T17:47:56.012Z,100834.09
2022-08-05T17:50:58.268Z,100841.78
2022-08-05T17:54:00.484Z,100844.19
2022-08-05T17:57:02.487Z,100851.31
2022-08-05T18:00:06.101Z,100862.31
2022-08-05T18:03:09.038Z,100863.66
2022-08-05T18:06:15.357Z,100867.25
2022-08-05T18:09:17.743Z,100866.94
2022-08-05T18:12:24.001Z,100864.69
2022-08-05T18:15:27.728Z,100870.97
2022-08-05T18:18:34.136Z,100884.16
2022-08-05T18:22:07.114Z,100881.91
2022-08-05T18:25:05.082Z,100867.75
2022-08-05T18:28:09.277Z,100885.41
2022-08-05T18:31:23.555Z,100878.94
2022-08-05T18:34:35.050Z,100899.13
2022-08-05T18:37:43.757Z,100899.38
2022-08-05T18:41:58.285Z,100895.22
2022-08-05T18:44:08.930Z,100899.91
2022-08-05T18:47:12.138Z,100898.44
2022-08-05T18:50:44.879Z,100901.69
2022-08-05T18:53:50.169Z,100903.03
2022-08-05T18:56:52.649Z,100892.22
2022-08-05T19:00:01.470Z,100908.47
2022-08-05T19:03:05.739Z,100899.63
2022-08-05T19:06:19.981Z,100895.47
2022-08-05T19:09:46.504Z,100886.25
2022-08-05T19:12:49.227Z,100898.41
2022-08-05T19:15:57.696Z,100892.63
2022-08-05T19:19:21.175Z,100886.31
2022-08-05T19:22:27.795Z,100892.06
2022-08-05T19:25:41.982Z,100874.09
2022-08-05T19:28:45.737Z,100887.06
2022-08-05T19:31:51.020Z,100889.81
2022-08-05T19:34:55.300Z,100888.16
2022-08-05T19:38:06.258Z,100884.81
2022-08-05T19:41:09.295Z,100894.16
2022-08-05T19:44:13.651Z,100888.06
2022-08-05T19:47:16.651Z,100886.16
2022-08-05T19:50:20.118Z,100875.66
2022-08-05T19:54:04.525Z,100879.16
2022-08-05T19:56:48.264Z,100881.66
2022-08-05T20:00:00.955Z,100872.25
2022-08-05T20:03:13.403Z,100874.16
2022-08-05T20:06:29.023Z,100873.34
2022-08-05T20:09:53.619Z,100870.00
2022-08-05T20:12:55.021Z,100873.59
2022-08-05T20:15:57.793Z,100878.50
2022-08-05T20:19:00.718Z,100872.41
2022-08-05T20:22:03.699Z,100879.34
2022-08-05T20:25:07.797Z,100879.09
2022-08-05T20:28:14.561Z,100878.25
2022-08-05T20:31:21.676Z,100877.69
2022-08-05T20:34:30.757Z,100870.25
2022-08-05T20:38:05.610Z,100882.34
2022-08-05T20:40:55.538Z,100888.09
2022-08-05T20:44:03.487Z,100890.28
2022-08-05T20:47:17.629Z,100886.91
2022-08-05T20:50:21.146Z,100878.66
2022-08-05T20:53:36.630Z,100878.94
2022-08-05T20:56:43.007Z,100879.75
2022-08-05T20:59:46.208Z,100867.13
2022-08-05T21:03:07.945Z,100870.94
2022-08-05T21:06:28.610Z,100873.09
2022-08-05T21:09:31.681Z,100870.34
2022-08-05T21:12:36.783Z,100875.59
2022-08-05T21:15:41.302Z,100872.84
2022-08-05T21:18:48.524Z,100869.53
2022-08-05T21:21:51.300Z,100878.59
2022-08-05T21:24:54.836Z,100880.75
2022-08-05T21:27:56.959Z,100870.59
2022-08-05T21:30:59.409Z,100875.53
2022-08-05T21:34:01.366Z,100882.69
2022-08-05T21:37:05.112Z,100877.44
2022-08-05T21:40:13.892Z,100871.34
2022-08-05T21:43:24.010Z,100864.19
2022-08-05T21:46:26.900Z,100860.00
2022-08-05T21:49:48.136Z,100859.75
2022-08-05T21:52:53.479Z,100869.69
2022-08-05T21:56:05.986Z,100863.56
2022-08-05T21:59:24.129Z,100872.44
2022-08-05T22:02:28.317Z,100879.88
2022-08-05T22:05:30.315Z,100868.88
2022-08-05T22:08:52.465Z,100866.13
2022-08-05T22:11:54.751Z,100868.59
2022-08-05T22:14:59.132Z,100858.56
2022-08-05T22:18:01.966Z,100865.03
2022-08-05T22:21:04.950Z,100871.63
2022-08-05T22:24:52.522Z,100870.75
2022-08-05T22:28:10.995Z,100868.00
2022-08-05T22:31:13.929Z,100873.72
2022-08-05T22:34:25.599Z,100857.19
2022-08-05T22:37:57.973Z,100863.25
2022-08-05T22:40:54.829Z,100867.06
2022-08-05T22:43:59.385Z,100870.91
2022-08-05T22:47:01.479Z,100876.16
2022-08-05T22:50:21.821Z,100861.81
2022-08-05T22:53:25.742Z,100865.41
2022-08-05T22:56:40.019Z,100870.06
2022-08-05T22:59:50.386Z,100869.00
2022-08-05T23:02:56.361Z,100866.25
2022-08-05T23:06:00.147Z,100874.50
2022-08-05T23:09:24.691Z,100867.06
2022-08-05T23:12:25.864Z,100869.00
2022-08-05T23:15:35.374Z,100870.66
2022-08-05T23:18:38.507Z,100863.50
2022-08-05T23:21:43.073Z,100853.75
2022-08-05T23:24:51.428Z,100865.41
2022-08-05T23:28:00.281Z,100862.66
2022-08-05T23:31:16.152Z,100865.66
2022-08-05T23:34:24.766Z,100867.84
2022-08-05T23:37:27.347Z,100859.59
2022-08-05T23:40:38.982Z,100857.91
2022-08-05T23:44:05.906Z,100857.06
2022-08-05T23:47:15.575Z,100855.41
2022-08-05T23:50:20.197Z,100864.50
2022-08-05T23:53:23.293Z,100868.91
2022-08-05T23:56:30.619Z,100868.06
